Time;durP1;ratioP1;P1;durP2;ratioP2;P2;SDS_P1;SDS_P2;PMS_P1;PMS_P2;Temp;Humidity;BMP_temperature;BMP_pressure;BME280_temperature;BME280_humidity;BME280_pressure;Samples;Min_cycle;Max_cycle;Signal;HPM_P1;HPM_P2
2024/03/26 00:00:20;;;;;;;5.00;3.50;;;;;;;7.88;100.00;99334.86;106018;1250;61232;-77
2024/03/26 00:02:47;;;;;;;5.30;3.30;;;;;;;7.86;100.00;99336.58;105953;1256;74717;-75
2024/03/26 00:05:15;;;;;;;3.00;2.50;;;;;;;7.84;100.00;99337.53;105870;1256;63627;-74
2024/03/26 00:07:42;;;;;;;3.80;3.40;;;;;;;7.84;100.00;99336.20;106042;1256;72724;-76
2024/03/26 00:10:09;;;;;;;6.50;3.60;;;;;;;7.83;100.00;99338.38;105880;1256;61647;-77
2024/03/26 00:12:36;;;;;;;8.10;3.90;;;;;;;7.81;100.00;99337.95;106053;1252;60351;-72
2024/03/26 00:15:04;;;;;;;5.00;3.50;;;;;;;7.80;100.00;99339.45;105884;1255;75361;-73
2024/03/26 00:17:31;;;;;;;3.90;3.50;;;;;;;7.77;100.00;99341.20;106010;1256;63773;-75
2024/03/26 00:19:59;;;;;;;4.70;3.30;;;;;;;7.75;100.00;99341.37;105920;1256;72707;-75
2024/03/26 00:22:26;;;;;;;4.20;3.40;;;;;;;7.71;100.00;99335.89;105902;1251;61733;-74
2024/03/26 00:24:53;;;;;;;5.60;3.70;;;;;;;7.70;100.00;99334.39;105756;1250;62400;-76
2024/03/26 00:27:20;;;;;;;5.60;3.20;;;;;;;7.68;100.00;99339.37;105834;1257;74603;-76
2024/03/26 00:29:48;;;;;;;4.50;3.10;;;;;;;7.66;100.00;99339.84;105812;1250;61594;-76
2024/03/26 00:32:15;;;;;;;4.60;3.00;;;;;;;7.64;100.00;99337.38;105878;1254;71418;-77
2024/03/26 00:34:42;;;;;;;5.40;3.20;;;;;;;7.63;100.00;99337.30;105832;1256;61302;-76
2024/03/26 00:37:09;;;;;;;4.00;3.20;;;;;;;7.61;100.00;99338.30;105905;1252;61185;-73
2024/03/26 00:39:37;;;;;;;6.00;3.30;;;;;;;7.59;100.00;99341.39;105940;1251;75784;-77
2024/03/26 00:42:04;;;;;;;4.10;3.40;;;;;;;7.57;100.00;99345.53;105930;1256;63176;-77
2024/03/26 00:44:31;;;;;;;5.30;3.60;;;;;;;7.55;100.00;99339.04;105865;1251;72796;-75
2024/03/26 00:46:58;;;;;;;4.80;3.90;;;;;;;7.53;100.00;99337.94;105831;1255;61220;-76
2024/03/26 00:49:25;;;;;;;6.20;4.20;;;;;;;7.55;100.00;99338.20;105911;1251;61224;-76
2024/03/26 00:51:52;;;;;;;10.80;4.60;;;;;;;7.55;100.00;99338.73;105745;1250;74575;-76
2024/03/26 00:54:20;;;;;;;6.30;4.60;;;;;;;7.56;100.00;99342.27;105873;1256;62373;-75
2024/03/26 00:56:50;;;;;;;6.80;3.80;;;;;;;7.57;100.00;99343.61;105811;1250;70266;-77
2024/03/26 00:59:17;;;;;;;7.10;4.20;;;;;;;7.57;100.00;99348.27;105879;1256;61302;-75
2024/03/26 01:01:44;;;;;;;5.70;4.30;;;;;;;7.58;100.00;99345.61;105756;1250;61267;-74
2024/03/26 01:04:11;;;;;;;10.70;5.10;;;;;;;7.59;100.00;99349.87;105839;1256;74565;-75
2024/03/26 01:06:40;;;;;;;5.30;3.80;;;;;;;7.61;100.00;99351.69;105757;1251;61719;-74
2024/03/26 01:09:08;;;;;;;4.80;3.90;;;;;;;7.63;100.00;99347.21;105883;1253;71614;-75
2024/03/26 01:11:35;;;;;;;8.10;3.40;;;;;;;7.64;100.00;99347.65;105931;1251;61265;-74
2024/03/26 01:14:02;;;;;;;8.70;4.20;;;;;;;7.66;100.00;99351.33;105844;1250;61296;-74
2024/03/26 01:16:30;;;;;;;3.50;3.20;;;;;;;7.69;100.00;99347.14;105843;1255;74997;-74
2024/03/26 01:18:57;;;;;;;6.90;4.00;;;;;;;7.73;100.00;99348.95;105892;1252;62493;-73
2024/03/26 01:21:25;;;;;;;5.50;4.20;;;;;;;7.76;100.00;99352.58;105880;1253;71206;-75
2024/03/26 01:23:52;;;;;;;5.60;3.40;;;;;;;7.79;100.00;99353.23;105849;1251;61257;-75
2024/03/26 01:26:20;;;;;;;5.50;3.40;;;;;;;7.83;100.00;99358.91;105963;1250;61404;-74
2024/03/26 01:28:48;;;;;;;7.10;3.90;;;;;;;7.85;100.00;99347.08;105909;1250;73458;-77
2024/03/26 01:31:15;;;;;;;6.80;4.40;;;;;;;7.88;100.00;99347.71;105902;1256;62336;-76
2024/03/26 01:33:43;;;;;;;7.40;4.30;;;;;;;7.93;100.00;99343.44;105907;1253;71463;-75
2024/03/26 01:36:10;;;;;;;6.00;4.20;;;;;;;7.97;100.00;99346.45;105869;1252;61304;-76
2024/03/26 01:38:37;;;;;;;4.30;3.90;;;;;;;8.00;100.00;99347.41;105999;1255;61333;-74
2024/03/26 01:41:04;;;;;;;5.60;3.70;;;;;;;8.03;100.00;99348.60;105850;1250;74546;-76
2024/03/26 01:43:31;;;;;;;6.70;3.30;;;;;;;8.04;100.00;99346.76;105852;1256;64312;-74
2024/03/26 01:46:00;;;;;;;5.20;4.50;;;;;;;8.06;100.00;99353.06;105890;1250;71392;-75
2024/03/26 01:48:27;;;;;;;4.10;3.30;;;;;;;8.07;100.00;99350.90;105932;1250;61266;-73
2024/03/26 01:50:54;;;;;;;7.40;4.80;;;;;;;8.09;100.00;99354.08;106006;1256;61815;-74
2024/03/26 01:55:45;;;;;;;7.20;4.30;;;;;;;8.14;100.00;99352.89;102672;1296;600315;-74
2024/03/26 01:58:12;;;;;;;6.30;4.20;;;;;;;8.13;100.00;99356.77;106983;1254;59585;-75
2024/03/26 02:00:39;;;;;;;6.10;4.70;;;;;;;8.14;100.00;99358.84;107868;1258;59493;-75
2024/03/26 02:03:07;;;;;;;7.40;5.60;;;;;;;8.15;100.00;99368.02;106792;1258;72206;-76
2024/03/26 02:05:34;;;;;;;7.30;6.40;;;;;;;8.15;100.00;99365.54;105578;1258;63739;-75
2024/03/26 02:08:01;;;;;;;11.10;8.10;;;;;;;8.14;100.00;99361.93;105534;1256;71494;-75
2024/03/26 02:10:28;;;;;;;9.70;8.10;;;;;;;8.13;100.00;99362.20;105488;1253;208565;-74
2024/03/26 02:12:56;;;;;;;10.10;6.00;;;;;;;8.12;100.00;99360.52;105699;1253;59925;-74
2024/03/26 02:15:23;;;;;;;6.50;5.40;;;;;;;8.09;100.00;99362.95;105799;1252;73075;-74
2024/03/26 02:17:51;;;;;;;7.20;6.50;;;;;;;8.07;100.00;99367.10;105804;1257;64041;-75
2024/03/26 02:20:18;;;;;;;9.40;5.70;;;;;;;8.06;100.00;99362.17;105732;1253;72778;-74
2024/03/26 02:22:45;;;;;;;9.50;7.50;;;;;;;8.03;100.00;99361.82;105554;1256;60932;-76
2024/03/26 02:25:12;;;;;;;11.50;7.80;;;;;;;8.01;100.00;99367.73;105777;1252;60512;-74
2024/03/26 02:27:40;;;;;;;10.40;7.70;;;;;;;7.97;100.00;99371.45;105740;1257;72188;-73
2024/03/26 02:30:07;;;;;;;13.40;8.30;;;;;;;7.94;100.00;99373.46;105765;1252;62310;-75
2024/03/26 02:32:35;;;;;;;14.60;9.20;;;;;;;7.89;100.00;99373.45;105611;1257;70996;-75
2024/03/26 02:35:03;;;;;;;11.30;8.10;;;;;;;7.85;100.00;99377.70;105698;1253;60505;-74
2024/03/26 02:37:31;;;;;;;13.20;8.70;;;;;;;7.82;100.00;99378.96;105694;1252;60575;-75
2024/03/26 02:39:59;;;;;;;11.20;7.90;;;;;;;7.79;100.00;99379.70;105758;1257;73841;-75
2024/03/26 02:42:26;;;;;;;17.50;10.20;;;;;;;7.77;100.00;99389.02;105729;1257;63497;-75
2024/03/26 02:44:54;;;;;;;17.90;10.80;;;;;;;7.76;100.00;99396.57;105736;1254;72785;-75
2024/03/26 02:47:21;;;;;;;19.00;11.20;;;;;;;7.73;100.00;99396.26;105898;1253;60507;-75
2024/03/26 02:49:49;;;;;;;21.50;12.50;;;;;;;7.70;100.00;99396.84;105897;1257;60408;-74
2024/03/26 02:52:16;;;;;;;23.70;15.40;;;;;;;7.67;100.00;99396.63;105786;1253;74678;-75
2024/03/26 02:54:43;;;;;;;25.00;16.30;;;;;;;7.65;100.00;99402.88;105702;1253;62326;-77
2024/03/26 02:57:10;;;;;;;34.30;16.60;;;;;;;7.64;100.00;99403.85;105795;1253;72622;-75
2024/03/26 02:59:38;;;;;;;31.00;17.80;;;;;;;7.60;100.00;99398.69;105625;1253;60510;-76
2024/03/26 03:02:05;;;;;;;34.10;16.30;;;;;;;7.59;100.00;99402.63;105826;1253;60452;-77
2024/03/26 03:04:33;;;;;;;39.10;18.80;;;;;;;7.59;100.00;99409.21;105763;1257;72496;-74
2024/03/26 03:07:00;;;;;;;35.90;17.50;;;;;;;7.61;100.00;99414.69;105756;1253;63552;-76
2024/03/26 03:09:27;;;;;;;36.40;18.10;;;;;;;7.61;100.00;99421.44;105752;1257;72717;-74
2024/03/26 03:11:54;;;;;;;33.40;18.50;;;;;;;7.62;100.00;99427.60;105774;1253;60534;-76
2024/03/26 03:14:22;;;;;;;31.80;19.60;;;;;;;7.64;100.00;99429.95;106004;1257;60957;-75
2024/03/26 03:16:49;;;;;;;31.70;20.40;;;;;;;7.64;100.00;99432.02;106188;1253;73903;-74
2024/03/26 03:19:17;;;;;;;28.80;20.50;;;;;;;7.63;100.00;99436.45;106202;1253;62290;-74
2024/03/26 03:21:44;;;;;;;34.90;21.50;;;;;;;7.59;100.00;99436.71;105823;1253;71487;-75
2024/03/26 03:24:11;;;;;;;37.20;23.50;;;;;;;7.49;100.00;99439.61;105840;1255;60454;-75
2024/03/26 03:26:38;;;;;;;31.70;20.00;;;;;;;7.40;100.00;99443.88;105895;1252;60578;-75
2024/03/26 03:29:06;;;;;;;29.60;19.60;;;;;;;7.35;100.00;99446.48;105862;1253;72626;-75
2024/03/26 03:31:34;;;;;;;34.30;21.30;;;;;;;7.26;100.00;99447.16;105718;1257;63690;-76
2024/03/26 03:34:01;;;;;;;34.10;20.80;;;;;;;7.20;100.00;99450.20;105744;1253;71955;-75
2024/03/26 03:36:28;;;;;;;31.40;19.30;;;;;;;7.14;100.00;99447.84;106154;1253;60391;-73
2024/03/26 03:38:55;;;;;;;28.20;19.40;;;;;;;7.10;100.00;99446.85;106138;1253;60419;-76
2024/03/26 03:41:22;;;;;;;30.00;18.90;;;;;;;7.05;100.00;99455.32;105713;1253;73001;-72
2024/03/26 03:43:50;;;;;;;26.10;17.80;;;;;;;7.01;100.00;99457.30;105699;1252;62445;-75
2024/03/26 03:46:18;;;;;;;26.40;18.80;;;;;;;6.98;100.00;99455.60;105811;1253;70860;-75
2024/03/26 03:48:45;;;;;;;26.40;17.90;;;;;;;6.98;100.00;99457.36;105810;1257;60553;-77
2024/03/26 03:51:13;;;;;;;30.20;18.60;;;;;;;6.98;100.00;99462.02;105714;1257;60361;-77
2024/03/26 03:53:40;;;;;;;26.80;17.70;;;;;;;6.97;100.00;99458.61;105854;1253;73417;-74
2024/03/26 03:56:07;;;;;;;29.30;17.50;;;;;;;7.00;100.00;99464.84;105644;1253;62938;-77
2024/03/26 03:58:35;;;;;;;29.40;17.60;;;;;;;7.02;100.00;99469.42;105833;1253;71487;-76
2024/03/26 04:01:03;;;;;;;24.40;16.70;;;;;;;7.02;100.00;99469.40;105763;1253;60538;-76
2024/03/26 04:03:30;;;;;;;23.30;15.80;;;;;;;7.03;100.00;99470.25;105885;1256;60550;-76
2024/03/26 04:06:02;;;;;;;26.30;17.40;;;;;;;7.03;100.00;99476.16;105800;1256;73891;-75
2024/03/26 04:08:29;;;;;;;26.30;16.00;;;;;;;7.01;100.00;99476.28;105698;1257;62288;-76
2024/03/26 04:10:57;;;;;;;37.60;18.80;;;;;;;6.97;100.00;99482.63;105682;1256;70817;-77
2024/03/26 04:13:24;;;;;;;32.10;19.50;;;;;;;6.93;100.00;99487.05;105698;1257;61710;-75
2024/03/26 04:15:51;;;;;;;29.20;20.70;;;;;;;6.90;100.00;99492.44;105784;1253;60620;-75
2024/03/26 04:18:19;;;;;;;37.70;19.60;;;;;;;6.88;100.00;99490.13;105759;1252;73077;-75
2024/03/26 04:20:46;;;;;;;29.40;19.60;;;;;;;6.88;100.00;99494.35;105669;1252;63338;-75
2024/03/26 04:23:14;;;;;;;35.10;20.20;;;;;;;6.88;100.00;99493.27;105689;1253;71458;-76
2024/03/26 04:25:41;;;;;;;25.20;17.80;;;;;;;6.91;100.00;99496.54;105708;1256;60550;-75
2024/03/26 04:28:08;;;;;;;26.60;18.20;;;;;;;6.95;100.00;99494.92;105833;1253;60377;-74
2024/03/26 04:30:36;;;;;;;24.60;18.10;;;;;;;6.97;100.00;99498.25;105725;1253;72642;-76
2024/03/26 04:33:03;;;;;;;28.40;19.00;;;;;;;6.98;100.00;99499.21;105721;1253;62439;-75
2024/03/26 04:35:30;;;;;;;34.00;21.60;;;;;;;6.99;100.00;99500.52;105705;1253;72787;-77
2024/03/26 04:37:58;;;;;;;35.00;20.50;;;;;;;7.02;100.00;99505.02;105684;1253;60432;-75
2024/03/26 04:40:26;;;;;;;31.80;20.10;;;;;;;7.04;100.00;99513.25;105765;1253;60431;-76
2024/03/26 04:42:53;;;;;;;29.80;19.00;;;;;;;7.04;100.00;99515.51;105837;1253;75984;-74
2024/03/26 04:45:21;;;;;;;31.80;20.40;;;;;;;7.05;100.00;99520.46;105697;1257;63339;-77
2024/03/26 04:47:48;;;;;;;30.40;20.40;;;;;;;7.05;100.00;99525.00;105716;1253;71349;-77
2024/03/26 04:50:16;;;;;;;34.50;19.30;;;;;;;7.06;100.00;99530.14;105796;1256;60661;-74
2024/03/26 04:52:43;;;;;;;27.30;18.50;;;;;;;7.05;100.00;99526.23;106317;1253;60422;-74
2024/03/26 04:55:10;;;;;;;35.20;21.80;;;;;;;7.04;100.00;99528.41;106241;1253;72405;-75
2024/03/26 04:57:38;;;;;;;31.10;19.40;;;;;;;6.99;100.00;99529.23;105791;1257;62473;-76
2024/03/26 05:00:07;;;;;;;29.20;19.30;;;;;;;6.94;100.00;99531.27;105736;1257;71753;-75
2024/03/26 05:02:34;;;;;;;29.50;17.70;;;;;;;6.91;100.00;99538.77;105818;1253;60498;-76
2024/03/26 05:05:02;;;;;;;28.10;18.70;;;;;;;6.91;100.00;99535.98;106039;1253;60557;-74
2024/03/26 05:19:42;;;;;;;23.00;14.40;;;;;;;7.69;100.00;99555.15;102438;1292;602465;-74
2024/03/26 05:22:09;;;;;;;32.40;15.10;;;;;;;8.26;100.00;99553.46;104951;1268;59603;-73
2024/03/26 05:24:38;;;;;;;19.50;13.60;;;;;;;8.88;100.00;99560.13;104963;1269;60366;-74
2024/03/26 05:27:05;;;;;;;23.30;15.80;;;;;;;9.46;100.00;99562.74;105234;1263;71857;-74
2024/03/26 05:29:32;;;;;;;23.20;15.10;;;;;;;9.86;100.00;99562.61;105520;1265;63604;-75
2024/03/26 05:31:58;;;;;;;40.40;21.20;;;;;;;10.11;100.00;99564.93;105124;1265;221882;-73
2024/03/26 05:34:25;;;;;;;43.00;24.10;;;;;;;10.24;100.00;99568.70;105383;1273;60378;-73
2024/03/26 05:36:52;;;;;;;39.90;24.10;;;;;;;10.28;99.07;99572.44;105367;1260;60264;-75
2024/03/26 05:39:19;;;;;;;45.70;23.90;;;;;;;10.29;96.86;99577.60;105467;1261;71736;-75
2024/03/26 05:41:46;;;;;;;32.50;21.30;;;;;;;10.29;95.02;99572.38;105339;1262;63595;-75
2024/03/26 05:44:13;;;;;;;34.40;20.10;;;;;;;10.31;96.42;99575.05;105265;1262;72440;-74
2024/03/26 05:46:41;;;;;;;32.50;18.20;;;;;;;10.40;97.41;99571.89;105204;1266;60303;-75
2024/03/26 05:49:08;;;;;;;33.90;20.00;;;;;;;10.52;95.48;99573.27;105293;1273;60449;-76
2024/03/26 05:51:35;;;;;;;36.00;18.60;;;;;;;10.61;93.77;99572.59;105395;1263;73889;-76
2024/03/26 05:54:02;;;;;;;35.50;18.40;;;;;;;10.65;91.58;99574.55;105263;1263;63920;-76
2024/03/26 05:56:29;;;;;;;29.00;16.60;;;;;;;10.66;91.80;99578.87;105260;1264;72717;-75
2024/03/26 05:58:57;;;;;;;20.70;15.60;;;;;;;10.67;92.39;99581.40;105234;1261;60533;-74
2024/03/26 06:01:23;;;;;;;28.20;17.40;;;;;;;10.69;93.02;99584.34;105281;1264;60620;-75
2024/03/26 06:03:50;;;;;;;31.00;15.70;;;;;;;10.75;93.00;99584.24;105244;1262;73865;-75
2024/03/26 06:06:17;;;;;;;32.80;16.20;;;;;;;10.79;93.41;99581.81;105209;1260;65040;-74
2024/03/26 06:08:44;;;;;;;29.10;16.10;;;;;;;10.81;93.93;99580.64;105467;1273;73016;-75
2024/03/26 06:11:10;;;;;;;20.80;13.60;;;;;;;10.78;95.53;99585.73;105449;1264;61506;-75
2024/03/26 06:13:37;;;;;;;20.90;12.90;;;;;;;10.71;97.89;99589.23;105321;1263;60526;-74
2024/03/26 06:16:04;;;;;;;24.80;12.20;;;;;;;10.63;99.34;99584.33;105219;1265;60543;-75
2024/03/26 06:18:31;;;;;;;13.30;10.10;;;;;;;10.46;100.00;99587.71;105430;1263;63666;-76
2024/03/26 06:20:58;;;;;;;15.30;10.00;;;;;;;10.33;100.00;99584.24;105430;1264;72729;-75
2024/03/26 06:23:25;;;;;;;12.10;9.50;;;;;;;10.26;100.00;99584.15;105182;1261;60445;-76
2024/03/26 06:25:53;;;;;;;20.50;9.20;;;;;;;10.16;100.00;99586.59;105346;1264;61778;-75
2024/03/26 06:28:20;;;;;;;11.40;9.70;;;;;;;10.15;100.00;99594.02;105463;1260;73773;-76
2024/03/26 06:30:47;;;;;;;13.50;8.40;;;;;;;10.18;100.00;99598.31;105390;1264;63994;-74
2024/03/26 06:33:14;;;;;;;16.40;10.50;;;;;;;10.26;100.00;99599.80;105234;1263;72374;-75
2024/03/26 06:35:42;;;;;;;11.90;8.60;;;;;;;10.42;100.00;99606.86;105310;1272;60496;-76
2024/03/26 06:38:08;;;;;;;16.70;8.80;;;;;;;10.61;100.00;99604.70;105381;1266;60450;-77
2024/03/26 06:40:35;;;;;;;17.60;9.80;;;;;;;10.82;100.00;99605.58;105229;1260;73653;-76
2024/03/26 06:43:03;;;;;;;12.10;9.90;;;;;;;11.06;100.00;99608.27;105220;1263;63873;-75
2024/03/26 06:45:31;;;;;;;14.30;10.60;;;;;;;11.29;99.94;99610.08;105976;1256;73498;-75
2024/03/26 06:48:01;;;;;;;16.10;9.90;;;;;;;11.50;98.88;99612.85;105893;1255;60709;-75
2024/03/26 06:50:28;;;;;;;14.70;10.60;;;;;;;11.66;97.15;99611.87;105948;1250;60466;-77
2024/03/26 06:52:55;;;;;;;18.20;11.80;;;;;;;11.85;94.62;99617.70;105885;1257;72794;-76
2024/03/26 06:55:22;;;;;;;18.10;11.70;;;;;;;12.09;92.49;99613.27;105778;1256;64182;-73
2024/03/26 06:57:50;;;;;;;18.90;13.40;;;;;;;12.40;88.82;99619.30;105782;1256;72699;-75
2024/03/26 07:00:18;;;;;;;24.90;12.40;;;;;;;12.76;86.53;99617.55;105894;1251;60523;-78
2024/03/26 07:02:45;;;;;;;18.70;12.70;;;;;;;13.15;82.07;99621.05;105995;1251;61717;-76
2024/03/26 07:05:11;;;;;;;16.30;11.50;;;;;;;13.54;77.36;99625.71;105880;1252;74224;-75
2024/03/26 07:07:42;;;;;;;25.10;12.80;;;;;;;13.90;72.68;99623.91;105884;1252;65200;-77
2024/03/26 07:10:09;;;;;;;24.00;13.50;;;;;;;14.16;70.17;99628.11;105870;1254;71756;-76
2024/03/26 07:12:36;;;;;;;16.10;11.60;;;;;;;14.33;68.15;99637.08;106021;1255;60623;-76
2024/03/26 07:15:06;;;;;;;17.40;13.10;;;;;;;14.48;66.59;99638.67;105878;1256;60415;-77
2024/03/26 07:17:33;;;;;;;20.60;13.80;;;;;;;14.76;65.58;99641.74;105893;1251;74181;-76
2024/03/26 07:20:00;;;;;;;23.60;14.50;;;;;;;15.14;62.94;99647.41;105745;1251;63886;-77
2024/03/26 07:22:27;;;;;;;21.40;13.90;;;;;;;15.55;62.02;99647.52;106202;1258;73660;-74
2024/03/26 07:24:54;;;;;;;21.40;13.60;;;;;;;16.07;60.31;99641.74;106011;1256;61173;-77
2024/03/26 07:27:21;;;;;;;30.20;14.80;;;;;;;16.65;55.99;99644.08;106006;1251;61077;-76
2024/03/26 07:29:48;;;;;;;22.30;14.10;;;;;;;17.19;55.10;99648.29;105900;1251;72867;-75
2024/03/26 07:32:16;;;;;;;24.00;15.10;;;;;;;17.78;52.72;99641.40;105926;1251;63067;-77
2024/03/26 07:34:44;;;;;;;25.40;14.90;;;;;;;18.40;51.14;99644.59;105814;1252;72574;-78
2024/03/26 07:37:10;;;;;;;17.80;14.20;;;;;;;18.97;47.88;99647.88;106028;1255;60561;-76
2024/03/26 07:39:37;;;;;;;17.60;14.20;;;;;;;19.43;46.09;99650.34;105846;1251;60406;-77
2024/03/26 07:42:04;;;;;;;27.50;15.20;;;;;;;19.79;44.36;99654.28;106302;1250;74194;-75
2024/03/26 07:44:33;;;;;;;22.30;15.20;;;;;;;20.14;42.81;99656.27;107315;1251;65100;-76
2024/03/26 07:47:00;;;;;;;22.90;14.20;;;;;;;20.38;42.39;99660.52;109333;1251;71817;-76
2024/03/26 07:49:28;;;;;;;15.30;11.20;;;;;;;20.66;42.23;99661.16;107368;1251;60543;-78
2024/03/26 07:51:55;;;;;;;16.40;11.10;;;;;;;20.91;40.65;99660.18;105934;1251;61607;-78
2024/03/26 07:54:23;;;;;;;20.40;12.10;;;;;;;20.99;40.26;99663.42;105825;1251;75042;-78
2024/03/26 07:56:50;;;;;;;15.50;12.10;;;;;;;21.15;40.08;99660.95;105949;1251;63173;-77
2024/03/26 07:59:17;;;;;;;13.40;11.80;;;;;;;21.46;39.75;99663.20;105900;1256;71496;-78
2024/03/26 08:01:43;;;;;;;15.10;11.70;;;;;;;21.71;39.06;99663.14;105987;1254;60419;-77
2024/03/26 08:04:10;;;;;;;20.50;12.70;;;;;;;21.94;38.02;99665.48;105869;1251;60422;-79
2024/03/26 08:06:37;;;;;;;19.60;12.90;;;;;;;22.02;37.62;99668.94;105844;1251;74538;-76
2024/03/26 08:09:04;;;;;;;19.00;12.70;;;;;;;22.13;37.70;99666.50;106073;1251;63583;-77
2024/03/26 08:11:30;;;;;;;16.40;12.90;;;;;;;22.18;36.91;99665.42;105862;1251;72659;-77
2024/03/26 08:13:57;;;;;;;17.50;11.90;;;;;;;21.91;36.76;99668.94;105770;1251;60746;-76
2024/03/26 08:16:24;;;;;;;17.70;12.90;;;;;;;21.58;37.11;99672.18;105816;1256;60358;-77
2024/03/26 08:18:51;;;;;;;15.40;11.80;;;;;;;21.42;37.39;99674.11;105889;1255;73070;-76
2024/03/26 08:21:18;;;;;;;18.50;13.50;;;;;;;21.34;37.91;99677.89;105895;1252;61698;-77
2024/03/26 08:23:45;;;;;;;19.00;12.70;;;;;;;21.35;37.57;99679.08;105761;1251;72281;-78
2024/03/26 08:26:12;;;;;;;16.50;12.50;;;;;;;21.20;37.32;99686.32;105787;1251;60537;-76
2024/03/26 08:28:38;;;;;;;18.90;12.20;;;;;;;20.98;37.58;99685.06;105837;1252;61402;-76
2024/03/26 08:31:05;;;;;;;15.80;12.70;;;;;;;20.71;37.62;99688.06;105860;1252;73606;-77
2024/03/26 08:33:35;;;;;;;18.50;12.70;;;;;;;20.51;38.05;99683.64;105887;1257;64092;-77
2024/03/26 08:36:04;;;;;;;18.90;12.20;;;;;;;20.58;38.35;99689.80;105891;1257;72702;-77
2024/03/26 08:38:32;;;;;;;14.90;10.90;;;;;;;20.83;38.30;99689.63;105940;1252;60708;-75
2024/03/26 08:40:59;;;;;;;12.90;9.80;;;;;;;21.16;37.56;99689.74;105934;1255;60322;-79
2024/03/26 08:43:26;;;;;;;16.70;10.60;;;;;;;21.41;37.21;99691.09;105900;1256;73932;-76
2024/03/26 08:45:53;;;;;;;14.80;10.60;;;;;;;21.72;36.55;99689.19;105872;1256;63598;-77
2024/03/26 08:48:20;;;;;;;13.60;8.70;;;;;;;21.92;35.74;99690.45;105884;1256;71307;-77
2024/03/26 08:50:48;;;;;;;15.10;9.70;;;;;;;21.99;35.03;99694.48;105905;1256;60795;-77
2024/03/26 08:53:14;;;;;;;15.70;10.30;;;;;;;22.06;34.76;99695.92;105781;1256;60336;-78
2024/03/26 08:55:43;;;;;;;13.30;9.40;;;;;;;22.19;34.57;99692.70;105913;1251;72100;-75
2024/03/26 08:58:09;;;;;;;9.40;6.50;;;;;;;22.26;33.88;99694.38;105961;1257;63275;-75
2024/03/26 09:00:40;;;;;;;9.00;6.80;;;;;;;22.59;33.15;99695.41;105892;1251;72820;-75
2024/03/26 09:03:08;;;;;;;6.70;5.50;;;;;;;23.00;32.42;99693.39;105788;1255;60812;-77
2024/03/26 09:05:35;;;;;;;8.10;5.10;;;;;;;23.34;31.75;99692.58;105866;1252;60593;-76
2024/03/26 09:08:02;;;;;;;7.90;4.90;;;;;;;23.68;31.88;99693.39;105857;1251;73707;-76
2024/03/26 09:10:29;;;;;;;7.20;4.80;;;;;;;23.97;30.53;99690.34;105920;1256;64951;-79
2024/03/26 09:12:56;;;;;;;16.30;4.70;;;;;;;24.10;30.07;99689.77;105903;1256;72489;-76
2024/03/26 09:15:23;;;;;;;6.50;4.40;;;;;;;24.15;29.17;99690.40;105799;1251;60424;-76
2024/03/26 09:17:53;;;;;;;8.00;5.30;;;;;;;24.29;29.33;99692.75;105821;1254;60857;-76
2024/03/26 09:20:21;;;;;;;7.40;4.70;;;;;;;24.55;28.58;99693.15;105855;1256;74341;-77
2024/03/26 09:22:47;;;;;;;6.00;4.60;;;;;;;24.51;28.33;99692.64;105741;1257;64004;-76
2024/03/26 09:25:17;;;;;;;7.40;5.30;;;;;;;24.22;28.20;99701.48;105843;1252;71709;-76
2024/03/26 09:27:44;;;;;;;7.10;5.90;;;;;;;23.70;29.03;99698.85;105854;1251;61164;-77
2024/03/26 09:30:11;;;;;;;10.90;6.40;;;;;;;23.45;29.56;99700.08;105868;1251;61202;-78
2024/03/26 09:32:39;;;;;;;6.30;5.60;;;;;;;23.38;29.53;99703.91;105873;1251;74953;-77
2024/03/26 09:35:08;;;;;;;8.30;6.20;;;;;;;23.44;29.36;99706.30;105860;1257;64927;-78
2024/03/26 09:37:35;;;;;;;7.70;5.30;;;;;;;23.32;29.34;99704.45;105886;1256;72695;-78
2024/03/26 09:40:03;;;;;;;9.50;6.10;;;;;;;23.37;29.67;99707.11;105793;1257;61235;-77
2024/03/26 09:42:31;;;;;;;10.70;6.80;;;;;;;23.55;29.71;99709.96;105800;1257;61205;-76
2024/03/26 09:44:58;;;;;;;8.10;7.10;;;;;;;23.68;29.67;99711.88;105877;1251;73621;-74
2024/03/26 09:47:34;;;;;;;9.80;6.20;;;;;;;23.57;29.47;99712.20;105939;1255;65107;-75
2024/03/26 09:50:02;;;;;;;10.80;5.50;;;;;;;23.40;29.32;99716.36;105774;1251;72955;-77
2024/03/26 09:52:34;;;;;;;10.70;6.10;;;;;;;23.18;29.80;99714.52;105847;1251;61365;-75
2024/03/26 09:55:01;;;;;;;7.60;6.20;;;;;;;23.22;29.73;99714.27;106031;1251;61244;-77
2024/03/26 09:57:28;;;;;;;11.80;6.80;;;;;;;23.50;29.70;99718.95;105823;1251;75869;-78
2024/03/26 09:59:55;;;;;;;7.00;6.30;;;;;;;23.82;29.94;99725.13;105813;1256;63115;-76
2024/03/26 10:02:21;;;;;;;8.00;6.80;;;;;;;24.12;29.37;99729.67;105747;1251;72030;-77
2024/03/26 10:04:48;;;;;;;11.30;6.90;;;;;;;23.97;29.75;99731.54;105689;1256;61283;-76
2024/03/26 10:07:15;;;;;;;8.10;6.40;;;;;;;23.85;30.05;99734.42;105858;1251;61273;-75
2024/03/26 10:09:43;;;;;;;8.60;6.70;;;;;;;23.91;29.97;99734.48;105983;1257;74625;-75
2024/03/26 10:12:10;;;;;;;10.70;6.50;;;;;;;23.95;29.89;99735.90;105865;1251;63767;-75
2024/03/26 10:14:39;;;;;;;6.80;6.10;;;;;;;24.02;29.64;99745.56;105921;1251;73790;-77
2024/03/26 10:17:06;;;;;;;6.60;5.90;;;;;;;23.97;29.29;99741.39;105815;1251;61276;-75
2024/03/26 10:19:33;;;;;;;7.20;5.90;;;;;;;23.62;29.88;99746.25;105909;1254;61200;-75
2024/03/26 10:22:00;;;;;;;5.80;5.20;;;;;;;23.39;30.13;99746.77;105730;1251;75592;-76
2024/03/26 10:24:30;;;;;;;11.40;6.60;;;;;;;22.91;30.37;99749.39;105851;1255;64402;-75
2024/03/26 10:26:57;;;;;;;7.00;6.30;;;;;;;22.29;30.49;99753.27;105926;1256;71521;-74
2024/03/26 10:29:25;;;;;;;8.90;6.80;;;;;;;21.59;31.28;99755.80;105888;1257;61229;-75
2024/03/26 10:31:51;;;;;;;8.90;6.20;;;;;;;20.90;32.20;99759.37;105701;1256;60470;-76
2024/03/26 10:34:21;;;;;;;12.20;6.30;;;;;;;20.29;33.01;99765.52;105717;1251;75440;-75
2024/03/26 10:36:48;;;;;;;9.30;6.40;;;;;;;19.81;33.58;99767.73;106028;1256;63222;-74
2024/03/26 10:39:15;;;;;;;13.20;6.60;;;;;;;19.43;34.03;99769.21;105643;1257;71565;-75
2024/03/26 10:41:42;;;;;;;7.00;5.70;;;;;;;19.01;34.59;99766.13;105917;1253;61282;-76
2024/03/26 10:44:09;;;;;;;9.90;6.30;;;;;;;18.67;35.43;99768.42;105729;1251;61401;-76
2024/03/26 10:46:36;;;;;;;9.30;5.70;;;;;;;18.60;35.95;99771.95;105637;1257;74816;-75
2024/03/26 10:49:02;;;;;;;8.00;6.20;;;;;;;18.54;35.89;99768.42;105920;1255;63114;-77
2024/03/26 10:51:29;;;;;;;9.20;5.70;;;;;;;18.33;36.28;99766.41;105855;1251;73525;-76
2024/03/26 10:53:56;;;;;;;10.30;6.30;;;;;;;18.16;36.50;99767.98;105974;1256;61462;-76
2024/03/26 10:56:25;;;;;;;7.90;6.40;;;;;;;18.07;36.70;99766.30;105727;1251;61241;-75
2024/03/26 10:58:56;;;;;;;9.80;7.40;;;;;;;17.97;36.91;99764.42;105781;1251;74634;-76
2024/03/26 11:01:23;;;;;;;8.80;6.40;;;;;;;17.90;37.37;99760.16;105830;1250;61936;-77
2024/03/26 11:03:51;;;;;;;8.70;6.70;;;;;;;17.91;37.42;99762.52;105898;1251;71755;-76
2024/03/26 11:06:19;;;;;;;10.60;6.70;;;;;;;17.99;37.11;99767.77;105904;1256;61652;-75
2024/03/26 11:08:46;;;;;;;8.30;6.40;;;;;;;18.08;37.04;99770.26;105995;1251;61228;-75
2024/03/26 11:11:15;;;;;;;8.60;5.10;;;;;;;18.23;37.01;99766.75;105824;1251;72474;-75
2024/03/26 11:13:42;;;;;;;9.00;6.10;;;;;;;18.42;36.79;99768.80;106005;1252;64194;-75
2024/03/26 11:16:08;;;;;;;12.70;4.80;;;;;;;18.55;36.18;99767.39;105829;1256;71984;-76
2024/03/26 11:18:38;;;;;;;7.40;5.50;;;;;;;18.57;35.88;99767.20;105894;1256;62803;-75
2024/03/26 11:21:06;;;;;;;12.20;6.10;;;;;;;18.52;36.10;99768.98;105800;1254;61401;-76
2024/03/26 11:23:37;;;;;;;9.20;5.60;;;;;;;18.53;36.17;99770.33;105882;1251;74056;-75
2024/03/26 11:26:04;;;;;;;6.10;5.30;;;;;;;18.54;35.63;99774.23;106053;1256;65149;-76
2024/03/26 11:28:31;;;;;;;8.10;5.60;;;;;;;18.52;35.50;99774.42;106019;1251;73933;-73
2024/03/26 11:30:58;;;;;;;7.20;5.50;;;;;;;18.51;35.75;99780.20;106066;1251;61320;-75